Time;durP1;ratioP1;P1;durP2;ratioP2;P2;SDS_P1;SDS_P2;PMS_P1;PMS_P2;Temp;Humidity;BMP_temperature;BMP_pressure;BME280_temperature;BME280_humidity;BME280_pressure;Samples;Min_cycle;Max_cycle;Signal;HPM_P1;HPM_P2
2022/05/13 00:01:42;;;;;;;0.00;0.00;;;15.10;1.00;13.70;96311.00;;;;5036028;28;20229;-70
2022/05/13 00:04:10;;;;;;;0.00;0.00;;;15.00;1.00;13.70;96284.00;;;;5065691;28;20225;-71
2022/05/13 00:06:38;;;;;;;0.00;0.00;;;15.00;99.90;13.60;96305.00;;;;5053498;28;20249;-71
2022/05/13 00:09:08;;;;;;;0.10;0.10;;;14.90;99.90;13.70;96313.00;;;;5053754;28;20202;-72
2022/05/13 00:11:36;;;;;;;0.00;0.00;;;15.00;99.90;13.60;96270.00;;;;5062754;28;20268;-72
2022/05/13 00:14:05;;;;;;;0.00;0.00;;;14.90;1.00;13.50;96247.00;;;;5055435;28;20264;-72
2022/05/13 00:16:34;;;;;;;0.00;0.00;;;14.80;1.00;13.50;96277.00;;;;5053662;28;20593;-71
2022/05/13 00:19:04;;;;;;;0.00;0.00;;;14.80;1.00;13.50;96269.00;;;;5053901;28;20198;-71
2022/05/13 00:21:32;;;;;;;0.10;0.10;;;14.80;1.00;13.50;96295.00;;;;5065581;28;20724;-71
2022/05/13 00:24:00;;;;;;;0.05;0.05;;;14.80;1.00;13.60;96432.00;;;;5074836;28;20500;-71
2022/05/13 00:26:29;;;;;;;0.00;0.00;;;14.80;1.00;13.50;96332.00;;;;5054720;28;20589;-71
2022/05/13 00:28:57;;;;;;;0.00;0.00;;;14.70;1.00;13.30;96270.00;;;;5073973;28;20198;-72
2022/05/13 00:31:25;;;;;;;0.00;0.00;;;14.60;1.00;13.40;96323.00;;;;5063543;28;20198;-72
2022/05/13 00:33:53;;;;;;;0.00;0.00;;;14.70;1.00;13.50;96320.00;;;;5059765;28;20202;-71
2022/05/13 00:36:22;;;;;;;0.00;0.00;;;14.70;1.00;13.50;96351.00;;;;5053795;28;20238;-71
2022/05/13 00:38:50;;;;;;;0.00;0.00;;;14.80;1.00;13.50;96338.00;;;;5053829;28;20946;-71
2022/05/13 00:41:18;;;;;;;0.10;0.10;;;14.70;1.00;13.50;96359.00;;;;5062859;28;20266;-71
2022/05/13 00:43:52;;;;;;;0.00;0.00;;;14.70;1.00;13.40;96354.00;;;;5053516;28;20616;-71
2022/05/13 00:46:21;;;;;;;0.00;0.00;;;14.80;1.00;13.40;96354.00;;;;5047602;28;20214;-71
2022/05/13 00:48:49;;;;;;;0.00;0.00;;;14.70;1.00;13.30;96344.00;;;;5033391;28;20282;-72
2022/05/13 00:51:23;;;;;;;0.10;0.10;;;14.60;39.10;13.20;96158.00;;;;5053218;28;20212;-72
2022/05/13 00:53:51;;;;;;;0.00;0.00;;;14.40;99.90;13.20;96133.00;;;;5058592;28;20209;-72
2022/05/13 00:56:20;;;;;;;0.00;0.00;;;14.50;99.90;13.20;96127.00;;;;5052955;28;20603;-71
2022/05/13 00:58:56;;;;;;;0.00;0.00;;;14.40;99.90;13.10;96157.00;;;;5053643;28;20683;-71
2022/05/13 01:01:24;;;;;;;0.00;0.00;;;14.40;99.90;13.20;96231.00;;;;5062557;28;20229;-71
2022/05/13 01:03:53;;;;;;;0.00;0.00;;;14.50;99.90;13.10;96269.00;;;;5065727;28;20194;-71
2022/05/13 01:06:24;;;;;;;0.00;0.00;;;14.50;99.90;13.10;96290.00;;;;5053012;28;20699;-72
2022/05/13 01:08:52;;;;;;;0.00;0.00;;;14.50;99.90;13.10;96288.00;;;;5052651;28;20612;-72
2022/05/13 01:11:25;;;;;;;0.00;0.00;;;14.40;99.90;13.10;96193.00;;;;5053548;28;20202;-72
2022/05/13 01:14:01;;;;;;;0.00;0.00;;;14.50;99.90;13.20;96205.00;;;;5069541;28;20262;-72
2022/05/13 01:16:29;;;;;;;0.00;0.00;;;14.50;99.90;13.20;96203.00;;;;5061697;28;20260;-72
2022/05/13 01:18:56;;;;;;;0.00;0.00;;;14.40;99.90;13.20;96177.00;;;;5052771;28;20202;-72
2022/05/13 01:21:29;;;;;;;0.00;0.00;;;14.50;99.90;13.20;96210.00;;;;5053084;28;20703;-72
2022/05/13 01:23:58;;;;;;;0.00;0.00;;;14.50;99.90;13.10;96201.00;;;;5069843;28;20206;-73
2022/05/13 01:26:29;;;;;;;0.00;0.00;;;14.40;1.00;13.10;96203.00;;;;5072541;28;20213;-72
2022/05/13 01:28:58;;;;;;;0.00;0.00;;;14.40;1.00;12.80;96184.00;;;;5072502;28;20205;-72
2022/05/13 01:31:30;;;;;;;0.00;0.00;;;14.10;1.00;12.70;96154.00;;;;5058106;28;20195;-72
2022/05/13 01:34:00;;;;;;;0.00;0.00;;;14.00;1.00;12.70;96170.00;;;;5050589;28;20656;-72
2022/05/13 01:36:30;;;;;;;0.00;0.00;;;13.90;1.00;12.60;96132.00;;;;5052199;28;20222;-72
2022/05/13 01:38:59;;;;;;;0.00;0.00;;;13.90;1.00;12.50;96160.00;;;;5052463;28;20206;-72
2022/05/13 01:41:29;;;;;;;0.10;0.10;;;13.80;1.00;12.50;96210.00;;;;5052310;28;20210;-72
2022/05/13 01:43:58;;;;;;;0.10;0.10;;;13.80;1.00;12.50;96090.00;;;;5053689;28;20544;-72
2022/05/13 01:46:27;;;;;;;0.00;0.00;;;13.80;1.00;12.50;96094.00;;;;5052007;28;20543;-72
2022/05/13 01:48:55;;;;;;;0.00;0.00;;;13.80;99.90;12.40;96099.00;;;;5052321;28;20628;-72
2022/05/13 01:51:25;;;;;;;0.08;0.08;;;13.70;99.90;12.40;96098.00;;;;5054319;28;20210;-72
2022/05/13 01:53:54;;;;;;;0.00;0.00;;;13.70;99.90;12.40;96136.00;;;;5067416;28;20201;-72
2022/05/13 01:56:23;;;;;;;0.10;0.10;;;13.70;99.90;12.40;96142.00;;;;5072132;28;20294;-72
2022/05/13 01:58:51;;;;;;;0.10;0.10;;;13.70;99.90;12.50;96150.00;;;;5061257;28;20252;-72
2022/05/13 02:01:20;;;;;;;0.10;0.10;;;13.80;99.90;12.50;96087.00;;;;5052181;28;20226;-71
2022/05/13 02:03:48;;;;;;;0.08;0.08;;;13.80;99.90;12.40;96074.00;;;;5051927;28;20286;-71
2022/05/13 02:06:19;;;;;;;0.10;0.10;;;13.80;99.90;12.40;96066.00;;;;5051469;28;20211;-71
2022/05/13 02:08:48;;;;;;;0.00;0.00;;;13.80;99.90;12.40;96065.00;;;;5051789;28;20194;-72
2022/05/13 02:11:16;;;;;;;0.10;0.10;;;13.80;99.90;12.30;96071.00;;;;5052954;28;20285;-72
2022/05/13 02:13:47;;;;;;;0.00;0.00;;;13.80;99.90;12.40;96089.00;;;;5065249;28;20208;-71
2022/05/13 02:16:15;;;;;;;0.00;0.00;;;13.80;99.90;12.40;96135.00;;;;5071773;28;20648;-72
2022/05/13 02:18:44;;;;;;;0.03;0.03;;;13.80;99.90;12.30;96134.00;;;;5072872;28;20191;-72
2022/05/13 02:21:12;;;;;;;0.10;0.10;;;13.80;99.90;12.30;96143.00;;;;5080102;28;20225;-72
2022/05/13 02:23:41;;;;;;;0.03;0.03;;;13.70;99.90;12.30;96126.00;;;;5086045;28;20251;-72
2022/05/13 02:26:13;;;;;;;0.10;0.10;;;13.70;99.90;12.20;96116.00;;;;5084136;28;20244;-72
2022/05/13 02:28:42;;;;;;;0.00;0.00;;;13.60;99.90;12.40;96115.00;;;;5066799;28;20673;-72
2022/05/13 02:31:12;;;;;;;0.00;0.00;;;13.80;99.90;12.30;96188.00;;;;5079107;28;20205;-72
2022/05/13 02:33:42;;;;;;;0.00;0.00;;;13.60;99.90;12.20;96126.00;;;;5071685;28;20281;-73
2022/05/13 02:36:12;;;;;;;0.10;0.10;;;13.60;99.90;12.10;96175.00;;;;5069449;28;20214;-73
2022/05/13 02:38:41;;;;;;;0.10;0.10;;;13.60;99.90;12.20;96146.00;;;;5071492;28;20243;-73
2022/05/13 02:41:15;;;;;;;0.00;0.00;;;13.80;99.90;12.20;96126.00;;;;5071434;28;20244;-72
2022/05/13 02:43:46;;;;;;;0.10;0.10;;;13.70;99.90;12.20;96130.00;;;;5071000;28;20194;-72
2022/05/13 02:46:19;;;;;;;0.10;0.10;;;13.70;99.90;12.10;96127.00;;;;5070872;28;20617;-72
2022/05/13 02:48:48;;;;;;;0.00;0.00;;;13.60;99.90;12.10;96098.00;;;;5049323;28;20188;-72
2022/05/13 02:51:17;;;;;;;0.10;0.10;;;13.60;99.90;11.90;96174.00;;;;5068164;28;20261;-72
2022/05/13 02:53:46;;;;;;;0.10;0.10;;;13.30;99.90;12.20;97191.00;;;;5060560;28;20614;-72
2022/05/13 02:56:15;;;;;;;0.05;0.05;;;13.10;99.90;12.10;97153.00;;;;5051214;28;20289;-72
2022/05/13 02:58:46;;;;;;;0.10;0.10;;;13.00;99.90;12.10;97217.00;;;;5051180;28;20194;-72
2022/05/13 03:01:19;;;;;;;0.10;0.10;;;13.00;99.90;12.30;97217.00;;;;5051658;28;20218;-71
2022/05/13 03:03:49;;;;;;;0.00;0.00;;;13.10;99.90;12.40;97204.00;;;;5065112;28;20201;-72
2022/05/13 03:06:19;;;;;;;0.10;0.10;;;13.30;99.90;12.10;97206.00;;;;5071101;28;20209;-72
2022/05/13 03:08:48;;;;;;;0.10;0.10;;;13.00;99.90;12.00;97204.00;;;;5067787;28;20260;-72
2022/05/13 03:11:17;;;;;;;0.08;0.08;;;13.00;99.90;12.00;97218.00;;;;5055339;28;20675;-72
2022/05/13 03:13:45;;;;;;;0.00;0.00;;;13.00;99.90;12.00;97213.00;;;;5064051;28;20190;-73
2022/05/13 03:16:19;;;;;;;0.10;0.10;;;13.00;99.90;12.10;97206.00;;;;5070781;28;20206;-72
2022/05/13 03:18:52;;;;;;;0.00;0.00;;;13.00;99.90;12.00;97212.00;;;;5051191;28;20211;-72
2022/05/13 03:21:22;;;;;;;0.00;0.00;;;12.80;99.90;11.90;97217.00;;;;5060980;28;20233;-72
2022/05/13 03:23:50;;;;;;;0.10;0.10;;;12.70;99.90;11.80;97206.00;;;;5064682;28;20194;-73
2022/05/13 03:26:22;;;;;;;0.10;0.10;;;12.60;99.90;11.60;97196.00;;;;5070886;28;20683;-72
2022/05/13 03:28:50;;;;;;;0.00;0.00;;;12.40;99.90;11.50;97193.00;;;;5062272;28;20195;-74
2022/05/13 03:31:19;;;;;;;0.00;0.00;;;12.40;99.90;11.60;97202.00;;;;5061865;28;20201;-73
2022/05/13 03:33:48;;;;;;;0.00;0.00;;;12.50;99.90;11.50;97196.00;;;;5057291;28;20193;-72
2022/05/13 03:36:16;;;;;;;0.00;0.00;;;12.40;99.90;11.60;97216.00;;;;5051312;28;20565;-72
2022/05/13 03:38:44;;;;;;;0.00;0.00;;;12.40;99.90;11.60;97207.00;;;;5050692;28;20195;-73
2022/05/13 03:41:12;;;;;;;0.00;0.00;;;12.40;99.90;11.60;97210.00;;;;5062086;28;20213;-72
2022/05/13 03:43:40;;;;;;;0.10;0.10;;;12.50;99.90;11.70;97208.00;;;;5052651;28;20198;-73
2022/05/13 03:46:08;;;;;;;0.03;0.03;;;12.50;99.90;11.60;97196.00;;;;5066977;28;20211;-72
2022/05/13 03:48:38;;;;;;;0.10;0.10;;;12.50;99.90;11.70;97213.00;;;;5030827;28;20201;-71
2022/05/13 03:51:06;;;;;;;0.10;0.10;;;12.60;99.90;11.60;97209.00;;;;5031195;28;20229;-72
2022/05/13 03:53:34;;;;;;;0.00;0.00;;;12.40;99.90;11.40;97177.00;;;;5049025;28;20199;-72
2022/05/13 03:56:02;;;;;;;0.10;0.10;;;12.30;99.90;11.40;97221.00;;;;5050217;28;20214;-72
2022/05/13 03:58:30;;;;;;;0.10;0.10;;;12.30;99.90;11.40;97223.00;;;;5066406;28;20201;-72
2022/05/13 04:00:59;;;;;;;0.00;0.00;;;12.40;99.90;11.60;97163.00;;;;5051297;28;20209;-72
2022/05/13 04:03:28;;;;;;;0.00;0.00;;;12.50;99.90;11.90;97225.00;;;;5054688;28;20218;-72
2022/05/13 04:08:58;;;;;;;0.00;0.00;;;12.80;99.90;11.80;97217.00;;;;5054015;28;20281;-72
2022/05/13 04:11:28;;;;;;;0.00;0.00;;;12.60;99.90;11.70;97212.00;;;;5045073;28;20206;-72
2022/05/13 04:16:43;;;;;;;0.10;0.10;;;12.60;99.90;11.60;97233.00;;;;5042024;28;20257;-72
2022/05/13 04:19:12;;;;;;;0.10;0.10;;;12.50;99.90;11.70;97230.00;;;;5042728;28;20194;-72
2022/05/13 04:21:43;;;;;;;0.10;0.10;;;12.50;99.90;11.70;97204.00;;;;5038176;28;20218;-72
2022/05/13 04:24:14;;;;;;;0.00;0.00;;;12.50;99.90;11.60;97232.00;;;;5034271;28;20557;-73
2022/05/13 04:26:42;;;;;;;0.00;0.00;;;12.50;99.90;11.50;97230.00;;;;5036475;28;20221;-72
2022/05/13 04:29:10;;;;;;;0.03;0.03;;;12.20;99.90;11.30;97235.00;;;;5054193;28;20191;-72
2022/05/13 04:31:42;;;;;;;0.10;0.10;;;12.10;99.90;11.30;97232.00;;;;5053812;28;20190;-72
2022/05/13 04:34:11;;;;;;;0.00;0.00;;;12.20;99.90;11.40;97243.00;;;;5053903;28;20205;-72
2022/05/13 04:36:40;;;;;;;0.10;0.10;;;12.20;99.90;11.50;97228.00;;;;5053520;28;20222;-72
2022/05/13 04:39:09;;;;;;;0.10;0.10;;;12.30;99.90;11.50;97240.00;;;;5054236;28;20202;-72
2022/05/13 04:44:23;;;;;;;0.00;0.00;;;12.40;99.90;11.70;97247.00;;;;5054142;28;20190;-72
2022/05/13 04:46:51;;;;;;;0.10;0.10;;;12.50;99.90;11.70;97239.00;;;;5053836;28;20208;-73
2022/05/13 04:49:19;;;;;;;0.00;0.00;;;12.60;99.90;11.80;97242.00;;;;5053243;28;20206;-72
2022/05/13 04:51:53;;;;;;;0.10;0.10;;;12.70;99.90;11.90;97260.00;;;;5053765;28;20260;-73
2022/05/13 04:54:23;;;;;;;0.10;0.10;;;12.80;99.90;12.00;97234.00;;;;5053901;28;20194;-72
2022/05/13 04:56:51;;;;;;;0.00;0.00;;;12.80;99.90;12.10;97233.00;;;;5053426;28;20190;-72
2022/05/13 04:59:19;;;;;;;0.00;0.00;;;12.90;99.90;12.20;97242.00;;;;5053869;28;20186;-73
2022/05/13 05:01:47;;;;;;;0.00;0.00;;;12.90;99.90;12.20;97157.00;;;;5053652;28;20254;-72
2022/05/13 05:04:15;;;;;;;0.00;0.00;;;13.00;99.90;12.20;97134.00;;;;5053699;28;20194;-72
2022/05/13 05:06:43;;;;;;;0.00;0.00;;;12.90;99.90;12.20;97113.00;;;;5052342;28;20767;-72
2022/05/13 05:09:11;;;;;;;0.00;0.00;;;13.00;99.90;12.30;97133.00;;;;5054387;28;20203;-71
2022/05/13 05:11:40;;;;;;;0.10;0.10;;;13.10;99.90;12.30;97110.00;;;;5054931;28;20206;-72
2022/05/13 05:14:08;;;;;;;0.00;0.00;;;13.20;99.90;12.40;97131.00;;;;5053698;28;20205;-71
2022/05/13 05:16:41;;;;;;;0.10;0.10;;;13.30;99.90;12.60;97133.00;;;;5052530;28;20206;-72
2022/05/13 05:19:10;;;;;;;0.05;0.05;;;13.50;99.90;12.80;97152.00;;;;5053224;28;20194;-72
2022/05/13 05:21:37;;;;;;;0.03;0.03;;;13.60;99.90;12.80;97143.00;;;;5041296;28;20206;-71
2022/05/13 05:24:06;;;;;;;0.00;0.00;;;13.60;99.90;12.90;97144.00;;;;5047999;28;20202;-72
2022/05/13 05:26:34;;;;;;;0.00;0.00;;;13.60;99.90;13.00;97161.00;;;;5056735;28;20254;-71
2022/05/13 05:29:04;;;;;;;0.10;0.10;;;13.70;99.90;13.00;97136.00;;;;5032965;28;20206;-69
2022/05/13 05:31:32;;;;;;;0.00;0.00;;;13.80;99.90;13.20;97130.00;;;;5084830;22;20275;-73
2022/05/13 05:34:00;;;;;;;0.00;0.00;;;13.90;99.90;13.20;97113.00;;;;5072863;28;20202;-73
2022/05/13 05:36:28;;;;;;;0.00;0.00;;;14.00;99.90;13.30;97122.00;;;;5072561;28;20197;-73
2022/05/13 05:38:56;;;;;;;0.00;0.00;;;14.10;99.90;13.40;97126.00;;;;5073258;28;20583;-72
2022/05/13 05:41:24;;;;;;;0.00;0.00;;;14.10;99.90;13.40;97112.00;;;;5071736;28;20759;-72
2022/05/13 05:43:52;;;;;;;0.10;0.10;;;14.20;99.90;13.50;97117.00;;;;5072303;28;20217;-73
2022/05/13 05:46:21;;;;;;;0.00;0.00;;;14.30;99.90;13.50;97138.00;;;;5072252;28;20191;-73
2022/05/13 05:48:49;;;;;;;0.08;0.08;;;14.30;99.90;13.60;97101.00;;;;5072533;28;20670;-72
2022/05/13 05:51:17;;;;;;;0.00;0.00;;;14.40;99.90;13.70;97124.00;;;;5072711;28;20635;-73
2022/05/13 05:59:17;;;;;;;0.00;0.00;;;14.70;99.90;14.10;97177.00;;;;5052129;28;20198;-72
2022/05/13 06:01:46;;;;;;;0.00;0.00;;;14.80;99.90;14.10;97178.00;;;;5052346;28;20209;-72
2022/05/13 06:04:20;;;;;;;0.00;0.00;;;14.80;99.90;14.20;97181.00;;;;5054800;28;20224;-72
2022/05/13 06:06:49;;;;;;;0.00;0.00;;;14.90;99.90;14.30;97188.00;;;;5053180;28;20220;-72
2022/05/13 06:09:17;;;;;;;0.00;0.00;;;14.90;99.90;14.40;97193.00;;;;5052638;28;20664;-72
2022/05/13 06:11:45;;;;;;;0.05;0.05;;;15.00;99.90;14.40;97196.00;;;;5052981;28;20210;-72
2022/05/13 06:14:13;;;;;;;0.00;0.00;;;15.10;99.90;14.50;97187.00;;;;5052354;28;20244;-72
2022/05/13 06:16:41;;;;;;;0.00;0.00;;;15.20;99.90;14.60;97197.00;;;;5051650;28;20205;-72
2022/05/13 06:19:11;;;;;;;0.00;0.00;;;15.30;99.90;14.60;97212.00;;;;5047961;28;20202;-72
2022/05/13 06:21:39;;;;;;;0.00;0.00;;;15.30;99.90;14.80;97217.00;;;;5040587;28;20265;-73
2022/05/13 06:24:08;;;;;;;0.00;0.00;;;15.40;99.90;14.90;97217.00;;;;5042477;28;20226;-72
2022/05/13 06:26:36;;;;;;;0.00;0.00;;;15.50;99.90;14.90;97212.00;;;;5051252;28;20190;-73
2022/05/13 06:29:05;;;;;;;0.00;0.00;;;15.60;99.90;15.00;97217.00;;;;5052183;28;20225;-72
2022/05/13 06:31:34;;;;;;;0.00;0.00;;;15.70;99.90;15.10;97222.00;;;;5051510;28;20210;-73
2022/05/13 06:34:04;;;;;;;0.00;0.00;;;15.70;99.90;15.10;97232.00;;;;5052437;28;20194;-73
2022/05/13 06:36:33;;;;;;;0.00;0.00;;;15.80;99.90;15.20;97248.00;;;;5051025;28;20199;-72
2022/05/13 06:39:03;;;;;;;0.00;0.00;;;15.90;99.90;15.30;97241.00;;;;5051403;28;20206;-72
2022/05/13 06:41:31;;;;;;;0.00;0.00;;;15.90;99.90;15.40;97247.00;;;;5051540;28;20214;-72
2022/05/13 06:43:59;;;;;;;0.00;0.00;;;16.00;99.90;15.50;97257.00;;;;5052312;28;20225;-72
2022/05/13 06:46:27;;;;;;;0.00;0.00;;;16.10;99.90;15.70;97246.00;;;;5051260;28;20506;-72
2022/05/13 06:48:55;;;;;;;0.00;0.00;;;16.30;99.90;15.80;97248.00;;;;5051375;28;20244;-72
2022/05/13 06:51:23;;;;;;;0.00;0.00;;;16.40;99.90;15.90;97254.00;;;;5051825;28;20579;-72
2022/05/13 06:53:52;;;;;;;0.00;0.00;;;16.60;99.90;16.00;97248.00;;;;5051500;28;20686;-72
2022/05/13 06:56:20;;;;;;;0.00;0.00;;;16.60;99.90;16.10;97239.00;;;;5051017;28;20560;-72
2022/05/13 06:58:48;;;;;;;0.00;0.00;;;16.80;99.90;16.20;97246.00;;;;5051342;28;20267;-73
2022/05/13 07:01:17;;;;;;;0.00;0.00;;;16.80;99.90;16.10;97130.00;;;;5051634;28;20211;-73
2022/05/13 07:03:45;;;;;;;0.00;0.00;;;16.90;99.90;16.30;97174.00;;;;5051496;28;20229;-72
2022/05/13 07:06:13;;;;;;;0.00;0.00;;;17.00;99.90;16.40;97171.00;;;;5051073;28;20210;-72
2022/05/13 07:08:42;;;;;;;0.00;0.00;;;17.10;99.90;16.50;97181.00;;;;5051281;28;20246;-72
2022/05/13 07:11:11;;;;;;;0.00;0.00;;;17.20;99.90;16.50;97176.00;;;;5051313;28;20585;-72
2022/05/13 07:13:42;;;;;;;0.00;0.00;;;17.20;99.90;16.60;97191.00;;;;5051452;28;20247;-72
2022/05/13 07:16:11;;;;;;;0.00;0.00;;;17.30;99.90;16.70;97215.00;;;;5050564;28;20198;-72
2022/05/13 07:18:41;;;;;;;0.00;0.00;;;17.30;99.90;16.80;97224.00;;;;5051257;28;20604;-71
2022/05/13 07:21:09;;;;;;;0.00;0.00;;;17.40;99.90;16.80;97201.00;;;;5051945;28;20241;-72
2022/05/13 07:23:37;;;;;;;0.00;0.00;;;17.40;99.90;16.80;97199.00;;;;5043953;28;20244;-72
2022/05/13 07:26:05;;;;;;;0.00;0.00;;;17.50;99.90;16.90;97200.00;;;;5032919;28;20207;-72
2022/05/13 07:28:36;;;;;;;0.00;0.00;;;17.60;99.90;16.90;97220.00;;;;5032145;28;20191;-72
2022/05/13 07:31:04;;;;;;;0.00;0.00;;;17.60;99.90;17.10;97225.00;;;;5038824;28;20301;-71
2022/05/13 07:33:32;;;;;;;0.00;0.00;;;17.70;99.90;17.10;97232.00;;;;5058116;28;20252;-72
2022/05/13 07:36:00;;;;;;;0.05;0.05;;;17.70;99.90;17.20;97231.00;;;;5061923;28;20246;-72
2022/05/13 07:38:30;;;;;;;0.00;0.00;;;17.70;99.90;17.30;97241.00;;;;5065219;28;20580;-72
2022/05/13 07:41:16;;;;;;;0.00;0.00;;;17.90;99.90;17.30;97211.00;;;;5065103;28;20273;-72
2022/05/13 07:43:48;;;;;;;0.00;0.00;;;17.90;99.90;17.30;97244.00;;;;5065443;28;20229;-72
2022/05/13 07:46:16;;;;;;;0.00;0.00;;;17.90;99.90;17.40;97239.00;;;;5054127;28;20209;-72
2022/05/13 07:48:44;;;;;;;0.00;0.00;;;18.00;99.90;17.70;97228.00;;;;5054892;28;20194;-72
2022/05/13 07:51:12;;;;;;;0.00;0.00;;;18.20;99.90;17.70;97232.00;;;;5055022;28;20678;-71
2022/05/13 07:53:40;;;;;;;0.00;0.00;;;18.20;99.90;17.90;97223.00;;;;5055143;28;20236;-72
2022/05/13 07:56:09;;;;;;;0.00;0.00;;;18.40;99.90;18.10;97233.00;;;;5054136;28;20721;-72
2022/05/13 07:58:38;;;;;;;0.00;0.00;;;18.60;99.90;18.30;97232.00;;;;5054321;28;20191;-72
2022/05/13 08:01:07;;;;;;;0.00;0.00;;;18.70;99.90;18.50;97233.00;;;;5054381;28;20214;-72
2022/05/13 08:03:35;;;;;;;0.00;0.00;;;18.90;99.90;18.50;97224.00;;;;5054419;28;20210;-72
2022/05/13 08:06:06;;;;;;;0.00;0.00;;;19.00;99.90;18.80;97232.00;;;;5053933;28;20218;-71
2022/05/13 08:08:40;;;;;;;0.00;0.00;;;19.30;99.90;18.80;97227.00;;;;5054452;28;20592;-71
2022/05/13 08:11:12;;;;;;;0.00;0.00;;;19.20;99.90;18.90;97233.00;;;;5054329;28;20222;-71
2022/05/13 08:13:41;;;;;;;0.00;0.00;;;19.40;99.90;19.00;97256.00;;;;5054337;28;20198;-71
2022/05/13 08:16:14;;;;;;;0.00;0.00;;;19.50;99.90;19.10;97195.00;;;;5053720;28;20262;-71
2022/05/13 08:18:43;;;;;;;0.05;0.05;;;19.60;99.90;19.00;97236.00;;;;5053536;28;20679;-71
2022/05/13 08:21:11;;;;;;;0.00;0.00;;;19.60;99.90;18.80;97244.00;;;;5054233;28;20268;-71
2022/05/13 08:23:40;;;;;;;0.00;0.00;;;19.30;99.90;18.90;97210.00;;;;5053913;28;20340;-71
2022/05/13 08:26:09;;;;;;;0.00;0.00;;;19.50;99.90;19.10;97201.00;;;;5053578;28;20266;-71
2022/05/13 08:28:37;;;;;;;0.00;0.00;;;19.60;99.90;19.30;97202.00;;;;5047508;28;20222;-71
2022/05/13 08:31:05;;;;;;;0.00;0.00;;;19.70;99.90;18.90;97183.00;;;;5042659;28;20707;-71
2022/05/13 08:33:35;;;;;;;0.00;0.00;;;19.60;99.90;19.00;97179.00;;;;5046787;28;20626;-71
2022/05/13 08:36:06;;;;;;;0.00;0.00;;;19.70;99.90;19.00;97208.00;;;;5053473;28;20217;-71
2022/05/13 08:38:52;;;;;;;0.00;0.00;;;19.50;99.90;18.90;97194.00;;;;5053782;28;20611;-71
2022/05/13 08:41:59;;;;;;;0.00;0.00;;;19.40;99.90;19.00;97203.00;;;;5056317;28;20206;-71
2022/05/13 08:44:28;;;;;;;0.00;0.00;;;19.50;99.90;19.10;97202.00;;;;5054265;28;20312;-71
2022/05/13 08:47:06;;;;;;;0.00;0.00;;;19.60;99.90;18.90;97203.00;;;;5050919;28;20530;-71
2022/05/13 08:49:56;;;;;;;0.00;0.00;;;19.50;99.90;18.70;97215.00;;;;5053467;28;20191;-71
2022/05/13 08:55:37;;;;;;;0.00;0.00;;;19.40;99.90;19.10;97186.00;;;;5053448;28;20209;-72
2022/05/13 08:58:12;;;;;;;0.00;0.00;;;19.60;99.60;19.20;97200.00;;;;5053494;28;20201;-72
2022/05/13 09:00:44;;;;;;;0.00;0.00;;;19.70;99.10;19.40;97211.00;;;;5053255;28;20300;-72
2022/05/13 09:03:26;;;;;;;0.00;0.00;;;19.90;98.70;19.70;97202.00;;;;5053895;28;20195;-72
2022/05/13 09:06:03;;;;;;;0.00;0.00;;;20.10;98.90;19.90;97210.00;;;;5053108;28;20233;-72
2022/05/13 09:08:39;;;;;;;0.00;0.00;;;20.30;98.20;19.90;97203.00;;;;5053101;28;20400;-72
2022/05/13 09:11:19;;;;;;;0.00;0.00;;;20.30;98.00;20.10;97206.00;;;;5045873;28;20230;-72
2022/05/13 09:14:08;;;;;;;0.00;0.00;;;20.50;97.90;20.30;97153.00;;;;5033128;28;20233;-72
2022/05/13 09:16:54;;;;;;;0.00;0.00;;;20.70;97.60;20.30;97173.00;;;;5032801;28;20199;-72
2022/05/13 09:19:34;;;;;;;0.00;0.00;;;20.70;98.00;20.40;97198.00;;;;5033057;28;20191;-72
2022/05/13 09:22:07;;;;;;;0.00;0.00;;;20.80;97.80;20.00;97180.00;;;;5033282;28;20218;-72
2022/05/13 09:24:35;;;;;;;0.00;0.00;;;20.60;97.80;20.10;97199.00;;;;5033159;28;20211;-72
2022/05/13 09:27:04;;;;;;;0.00;0.00;;;20.60;98.20;20.10;97203.00;;;;5031688;28;20241;-72
2022/05/13 09:29:40;;;;;;;0.00;0.00;;;20.60;98.10;20.20;97202.00;;;;5031972;28;20258;-73
2022/05/13 09:32:16;;;;;;;0.00;0.00;;;20.70;97.60;19.80;97227.00;;;;5033169;28;20219;-72
2022/05/13 09:34:55;;;;;;;0.00;0.00;;;20.40;97.40;19.70;97223.00;;;;5033013;28;20663;-72
2022/05/13 09:37:28;;;;;;;0.00;0.00;;;20.30;97.30;19.50;97220.00;;;;5031328;28;20203;-72
2022/05/13 09:40:10;;;;;;;0.00;0.00;;;20.10;97.60;19.50;97204.00;;;;5032702;28;20207;-73
2022/05/13 09:42:41;;;;;;;0.00;0.00;;;20.10;97.80;19.90;97210.00;;;;5032472;28;20217;-72
2022/05/13 09:45:21;;;;;;;0.00;0.00;;;20.30;97.20;19.90;97184.00;;;;5033067;28;20714;-72
2022/05/13 09:48:09;;;;;;;0.00;0.00;;;20.30;97.20;20.20;97193.00;;;;5031597;28;20253;-72
2022/05/13 09:50:42;;;;;;;0.00;0.00;;;20.60;97.30;20.10;97207.00;;;;5033608;28;20699;-73
2022/05/13 09:53:34;;;;;;;0.00;0.00;;;20.60;97.20;20.00;97214.00;;;;5032936;28;20249;-72
2022/05/13 09:56:05;;;;;;;0.00;0.00;;;20.50;97.80;20.30;97208.00;;;;5032808;28;20202;-72
2022/05/13 09:58:49;;;;;;;0.00;0.00;;;20.70;97.20;20.40;97203.00;;;;5032597;28;20278;-73
2022/05/13 10:01:28;;;;;;;0.00;0.00;;;20.80;97.30;20.50;97179.00;;;;5031457;28;20225;-73
2022/05/13 10:04:08;;;;;;;0.00;0.00;;;20.80;97.40;20.30;97186.00;;;;5035107;28;20202;-72
2022/05/13 10:15:29;;;;;;;0.00;0.00;;;20.80;96.10;20.30;97208.00;;;;5034261;28;20212;-71
2022/05/13 10:18:08;;;;;;;0.00;0.00;;;20.80;95.30;20.20;97196.00;;;;5037040;28;20679;-70
2022/05/13 10:20:41;;;;;;;0.00;0.00;;;20.70;95.70;20.20;97197.00;;;;5031852;28;20226;-70
2022/05/13 10:23:16;;;;;;;0.00;0.00;;;20.50;96.80;20.30;97218.00;;;;5031993;28;20245;-72
2022/05/13 10:25:56;;;;;;;0.00;0.00;;;20.70;95.50;20.20;97222.00;;;;5031382;28;20214;-71
2022/05/13 10:28:33;;;;;;;0.00;0.00;;;20.70;95.10;20.10;97215.00;;;;5032042;28;20565;-70
2022/05/13 10:31:09;;;;;;;0.00;0.00;;;20.70;95.10;20.30;97205.00;;;;5031993;28;20218;-71
2022/05/13 10:33:43;;;;;;;0.00;0.00;;;20.80;95.10;19.90;97202.00;;;;5031912;28;20233;-71
2022/05/13 10:36:21;;;;;;;0.00;0.00;;;20.40;95.50;20.50;97213.00;;;;5046393;28;20207;-71
2022/05/13 10:38:59;;;;;;;0.00;0.00;;;20.90;95.70;20.20;97210.00;;;;5031394;28;20191;-71
2022/05/13 10:41:38;;;;;;;0.00;0.00;;;20.60;95.00;20.20;97201.00;;;;5031822;28;20222;-71
2022/05/13 10:44:14;;;;;;;0.00;0.00;;;20.60;95.20;20.40;97200.00;;;;5032488;28;20473;-71
2022/05/13 10:46:49;;;;;;;0.00;0.00;;;20.80;95.00;20.60;97194.00;;;;5030795;28;20222;-71
2022/05/13 10:49:43;;;;;;;0.00;0.00;;;21.00;94.90;21.20;97197.00;;;;5031175;28;20364;-71
2022/05/13 10:52:26;;;;;;;0.00;0.00;;;21.50;94.50;21.70;97196.00;;;;5031652;28;20215;-71
2022/05/13 10:55:00;;;;;;;0.00;0.00;;;21.90;94.40;21.40;97180.00;;;;5031346;28;20253;-71
2022/05/13 10:57:42;;;;;;;0.00;0.00;;;21.80;93.90;21.10;97195.00;;;;5031066;28;20197;-71
2022/05/13 11:00:16;;;;;;;0.00;0.00;;;21.70;93.70;21.50;97191.00;;;;5031517;28;20656;-71
2022/05/13 11:03:28;;;;;;;0.00;0.00;;;21.80;93.80;21.20;97199.00;;;;5033222;28;20197;-70
2022/05/13 11:06:19;;;;;;;0.00;0.00;;;21.50;94.30;20.80;97195.00;;;;5031612;28;20227;-70
2022/05/13 11:08:56;;;;;;;0.00;0.00;;;21.30;94.20;20.90;97192.00;;;;5032099;28;20199;-71
2022/05/13 11:11:39;;;;;;;0.00;0.00;;;21.40;94.40;20.90;97192.00;;;;5041228;28;20272;-71
2022/05/13 11:14:26;;;;;;;0.00;0.00;;;21.40;94.60;21.20;97190.00;;;;5052494;28;20186;-70
2022/05/13 11:17:07;;;;;;;0.00;0.00;;;21.60;95.10;21.50;97200.00;;;;5051347;28;20200;-70
2022/05/13 11:19:43;;;;;;;0.00;0.00;;;21.90;94.60;21.50;97183.00;;;;5051506;28;20209;-71
2022/05/13 11:22:22;;;;;;;0.00;0.00;;;21.90;93.70;21.40;97189.00;;;;5052081;28;20224;-70
2022/05/13 11:28:08;;;;;;;0.00;0.00;;;21.80;93.00;21.60;97187.00;;;;5056369;28;20198;-71
2022/05/13 11:33:21;;;;;;;0.00;0.00;;;22.00;92.80;21.60;97190.00;;;;5090078;28;20220;-71
2022/05/13 11:36:12;;;;;;;0.00;0.00;;;21.90;92.00;21.90;97194.00;;;;5090925;28;20200;-70
2022/05/13 11:39:09;;;;;;;0.00;0.00;;;22.10;92.40;22.30;97192.00;;;;5090327;28;20193;-71
2022/05/13 11:41:48;;;;;;;0.00;0.00;;;22.50;92.00;22.50;97199.00;;;;5091223;28;20234;-71
2022/05/13 11:44:59;;;;;;;0.00;0.00;;;22.80;91.20;22.20;97207.00;;;;5091879;28;20224;-71
2022/05/13 11:47:42;;;;;;;0.00;0.00;;;22.50;91.00;22.00;97184.00;;;;5090790;28;20180;-70